Time;durP1;ratioP1;P1;durP2;ratioP2;P2;SDS_P1;SDS_P2;PMS_P1;PMS_P2;Temp;Humidity;BMP_temperature;BMP_pressure;BME280_temperature;BME280_humidity;BME280_pressure;Samples;Min_cycle;Max_cycle;Signal;HPM_P1;HPM_P2
2023/04/22 00:00:18;;;;;;;11.85;9.45;;;13.30;99.90;;;;;;5007427;28;20487;-92
2023/04/22 00:02:44;;;;;;;11.48;8.50;;;13.20;99.90;;;;;;5018075;28;20041;-92
2023/04/22 00:05:12;;;;;;;12.82;8.82;;;13.30;99.90;;;;;;5021419;28;20037;-91
2023/04/22 00:07:41;;;;;;;13.52;9.32;;;13.20;99.90;;;;;;5007775;28;20037;-92
2023/04/22 00:10:09;;;;;;;11.20;7.93;;;13.30;99.90;;;;;;5033567;28;20094;-92
2023/04/22 00:12:34;;;;;;;15.85;8.27;;;13.20;99.90;;;;;;5016573;28;20135;-92
2023/04/22 00:15:00;;;;;;;10.35;7.80;;;13.30;99.90;;;;;;5018334;28;20040;-91
2023/04/22 00:17:26;;;;;;;13.93;8.88;;;13.30;99.90;;;;;;5031998;28;20048;-91
2023/04/22 00:19:51;;;;;;;10.55;8.55;;;13.20;99.90;;;;;;5012502;28;20056;-91
2023/04/22 00:22:17;;;;;;;9.73;8.15;;;13.20;99.90;;;;;;5010130;28;20094;-92
2023/04/22 00:24:43;;;;;;;10.30;9.00;;;13.20;99.90;;;;;;5037941;28;20131;-92
2023/04/22 00:27:09;;;;;;;10.90;8.25;;;13.20;99.90;;;;;;5020531;28;20552;-91
2023/04/22 00:29:35;;;;;;;11.85;8.68;;;13.80;99.90;;;;;;5036772;28;20072;-90
2023/04/22 00:32:00;;;;;;;10.63;8.45;;;13.10;99.90;;;;;;5027071;28;20076;-92
2023/04/22 00:34:26;;;;;;;12.13;9.27;;;13.20;99.90;;;;;;5012960;28;20042;-90
2023/04/22 00:36:52;;;;;;;11.88;9.15;;;13.00;99.90;;;;;;5004592;28;20033;-92
2023/04/22 00:39:17;;;;;;;11.23;9.30;;;13.50;99.90;;;;;;5020682;28;20450;-92
2023/04/22 00:41:43;;;;;;;10.07;8.48;;;12.90;99.90;;;;;;5015061;28;20112;-91
2023/04/22 00:44:10;;;;;;;10.68;8.75;;;12.90;99.90;;;;;;5013145;28;20040;-92
2023/04/22 00:46:39;;;;;;;10.15;7.78;;;12.90;99.90;;;;;;5038701;28;20059;-91
2023/04/22 00:49:06;;;;;;;13.38;9.43;;;12.80;99.90;;;;;;5023352;28;20087;-92
2023/04/22 00:51:32;;;;;;;12.00;10.13;;;12.80;99.90;;;;;;5002812;28;20041;-92
2023/04/22 00:53:57;;;;;;;12.90;10.10;;;12.70;99.90;;;;;;5025187;28;20044;-91
2023/04/22 00:56:27;;;;;;;13.68;10.23;;;12.70;99.90;;;;;;4997721;28;20047;-91
2023/04/22 00:58:54;;;;;;;13.98;10.52;;;12.60;99.90;;;;;;5047551;28;20099;-93
2023/04/22 01:01:20;;;;;;;11.50;8.35;;;12.90;99.90;;;;;;5008205;28;20033;-91
2023/04/22 01:03:48;;;;;;;12.90;9.57;;;12.60;99.90;;;;;;4995076;28;20671;-93
2023/04/22 01:06:14;;;;;;;12.57;10.13;;;12.50;99.90;;;;;;5011391;28;20033;-91
2023/04/22 01:08:40;;;;;;;12.02;9.95;;;12.40;99.90;;;;;;5016635;28;20053;-92
2023/04/22 01:11:06;;;;;;;11.38;8.65;;;12.40;99.90;;;;;;5035697;28;20052;-91
2023/04/22 01:13:32;;;;;;;14.15;9.30;;;12.40;99.90;;;;;;5031728;28;20084;-92
2023/04/22 01:15:59;;;;;;;12.25;8.80;;;12.30;99.90;;;;;;5053934;28;20053;-92
2023/04/22 01:18:25;;;;;;;9.05;7.75;;;12.30;99.90;;;;;;5045611;28;20068;-91
2023/04/22 01:20:51;;;;;;;10.82;8.90;;;12.30;99.90;;;;;;5022913;28;20083;-92
2023/04/22 01:23:21;;;;;;;13.38;9.82;;;12.30;99.90;;;;;;5038420;28;20048;-92
2023/04/22 01:25:48;;;;;;;11.75;8.93;;;12.30;99.90;;;;;;5038850;28;20060;-92
2023/04/22 01:28:15;;;;;;;13.32;9.88;;;12.80;99.90;;;;;;5023635;28;20536;-92
2023/04/22 01:30:41;;;;;;;11.13;8.07;;;12.20;99.90;;;;;;5028015;28;20086;-92
2023/04/22 01:33:08;;;;;;;13.70;10.73;;;12.20;99.90;;;;;;5048472;28;20122;-92
2023/04/22 01:35:38;;;;;;;13.23;10.75;;;12.20;99.90;;;;;;5030478;28;20033;-92
2023/04/22 01:38:05;;;;;;;13.18;10.50;;;12.20;99.90;;;;;;5067671;28;20032;-92
2023/04/22 01:40:31;;;;;;;13.45;10.52;;;12.10;99.90;;;;;;5039962;28;20488;-92
2023/04/22 01:43:00;;;;;;;14.35;12.05;;;12.10;99.90;;;;;;5052428;28;20045;-93
2023/04/22 01:45:27;;;;;;;14.48;11.75;;;12.00;99.90;;;;;;5052558;28;20115;-93
2023/04/22 01:47:53;;;;;;;11.75;8.98;;;12.00;99.90;;;;;;5013612;28;20509;-91
2023/04/22 01:50:19;;;;;;;13.45;11.27;;;12.00;99.90;;;;;;5025569;28;20045;-91
2023/04/22 01:52:45;;;;;;;16.42;13.02;;;12.00;99.90;;;;;;5049653;28;20365;-92
2023/04/22 01:55:11;;;;;;;14.20;11.32;;;11.90;99.90;;;;;;5029356;28;20128;-92
2023/04/22 01:57:36;;;;;;;15.32;12.43;;;11.90;99.90;;;;;;5051282;28;20044;-91
2023/04/22 02:00:04;;;;;;;13.18;11.50;;;11.80;99.90;;;;;;5037845;28;20107;-92
2023/04/22 02:02:30;;;;;;;13.65;11.38;;;11.80;99.90;;;;;;5042042;28;20760;-91
2023/04/22 02:04:56;;;;;;;11.05;8.20;;;11.70;99.90;;;;;;5044068;28;20044;-91
2023/04/22 02:07:22;;;;;;;15.32;11.27;;;11.80;99.90;;;;;;5050505;28;20111;-93
2023/04/22 02:09:48;;;;;;;17.17;12.15;;;11.70;99.90;;;;;;5028618;28;20131;-91
2023/04/22 02:12:14;;;;;;;11.50;10.00;;;11.70;99.90;;;;;;5030580;28;20037;-93
2023/04/22 02:14:39;;;;;;;14.02;10.75;;;11.60;99.90;;;;;;5037834;28;20037;-91
2023/04/22 02:17:05;;;;;;;13.85;11.57;;;11.50;99.90;;;;;;5062232;28;20045;-91
2023/04/22 02:19:31;;;;;;;16.35;10.70;;;11.50;99.90;;;;;;5045144;28;20392;-91
2023/04/22 02:21:57;;;;;;;14.40;11.98;;;11.50;99.90;;;;;;5027964;28;20567;-92
2023/04/22 02:24:22;;;;;;;16.30;12.70;;;11.50;99.90;;;;;;5048883;28;20565;-91
2023/04/22 02:26:48;;;;;;;13.80;10.98;;;11.80;99.90;;;;;;5023087;28;20040;-93
2023/04/22 02:29:15;;;;;;;14.18;10.95;;;11.40;99.90;;;;;;5029956;28;20037;-92
2023/04/22 02:31:41;;;;;;;13.73;11.32;;;11.40;99.90;;;;;;5020711;28;20041;-92
2023/04/22 02:34:06;;;;;;;14.82;10.88;;;11.90;99.90;;;;;;5017572;28;20053;-91
2023/04/22 02:36:33;;;;;;;16.70;11.57;;;11.40;99.90;;;;;;5018046;28;20503;-92
2023/04/22 02:39:00;;;;;;;17.23;12.80;;;11.80;99.90;;;;;;5030448;28;20087;-91
2023/04/22 02:41:26;;;;;;;15.82;12.70;;;11.40;99.90;;;;;;5050817;28;20049;-92
2023/04/22 02:43:52;;;;;;;13.02;10.55;;;11.40;99.90;;;;;;5074830;28;20109;-92
2023/04/22 02:46:17;;;;;;;14.57;11.63;;;11.30;99.90;;;;;;5057970;28;20029;-91
2023/04/22 02:48:43;;;;;;;13.25;11.85;;;11.30;99.90;;;;;;5036394;28;20397;-91
2023/04/22 02:51:09;;;;;;;15.02;12.77;;;11.20;99.90;;;;;;5055579;28;20080;-91
2023/04/22 02:53:35;;;;;;;13.98;11.75;;;11.20;99.90;;;;;;5022999;28;20778;-92
2023/04/22 02:56:01;;;;;;;13.65;10.15;;;11.20;99.90;;;;;;5039992;28;20430;-92
2023/04/22 02:58:26;;;;;;;13.40;11.35;;;11.10;99.90;;;;;;5038451;28;20449;-91
2023/04/22 03:00:52;;;;;;;13.40;11.18;;;11.40;99.90;;;;;;5061049;28;20891;-92
2023/04/22 03:03:18;;;;;;;14.38;10.52;;;11.10;99.90;;;;;;5029727;28;20041;-92
2023/04/22 03:05:44;;;;;;;12.23;10.45;;;11.10;99.90;;;;;;5052697;28;20086;-92
2023/04/22 03:08:09;;;;;;;13.93;11.70;;;11.00;99.90;;;;;;5021136;28;20138;-92
2023/04/22 03:10:35;;;;;;;12.80;10.70;;;11.00;99.90;;;;;;5055549;28;20045;-91
2023/04/22 03:13:01;;;;;;;13.25;10.15;;;11.10;99.90;;;;;;5035757;28;20037;-92
2023/04/22 03:15:27;;;;;;;13.52;11.02;;;10.90;99.90;;;;;;5044255;28;20049;-92
2023/04/22 03:17:53;;;;;;;15.75;10.93;;;10.70;99.90;;;;;;5049114;28;20036;-92
2023/04/22 03:20:19;;;;;;;12.43;10.95;;;10.70;99.90;;;;;;5051691;28;20044;-90
2023/04/22 03:22:45;;;;;;;11.77;8.80;;;10.70;99.90;;;;;;5026117;28;20048;-92
2023/04/22 03:25:11;;;;;;;15.43;11.18;;;10.70;99.90;;;;;;5053401;28;20129;-90
2023/04/22 03:27:36;;;;;;;14.73;12.20;;;10.60;99.90;;;;;;5043675;28;20071;-92
2023/04/22 03:30:03;;;;;;;13.98;11.07;;;10.60;99.90;;;;;;5053453;28;20169;-92
2023/04/22 03:32:29;;;;;;;15.60;11.50;;;10.60;99.90;;;;;;5020727;28;20033;-92
2023/04/22 03:34:55;;;;;;;13.10;10.77;;;10.50;99.90;;;;;;5037496;28;20470;-92
2023/04/22 03:37:20;;;;;;;12.60;10.23;;;10.60;99.90;;;;;;5052032;28;20036;-91
2023/04/22 03:39:46;;;;;;;15.88;10.63;;;11.40;99.90;;;;;;5036741;28;20044;-92
2023/04/22 03:42:13;;;;;;;13.90;11.82;;;10.50;99.90;;;;;;5038377;28;20340;-92
2023/04/22 03:44:39;;;;;;;12.18;10.85;;;11.10;99.90;;;;;;5069150;28;20043;-91
2023/04/22 03:47:04;;;;;;;12.63;10.20;;;10.40;99.90;;;;;;5027803;28;20033;-91
2023/04/22 03:49:30;;;;;;;14.10;11.18;;;10.40;99.90;;;;;;5051011;28;20037;-91
2023/04/22 03:51:56;;;;;;;14.25;11.35;;;10.40;99.90;;;;;;5031680;28;20087;-92
2023/04/22 03:54:22;;;;;;;15.88;11.75;;;10.40;99.90;;;;;;5021303;28;20127;-91
2023/04/22 03:56:48;;;;;;;14.15;11.40;;;10.30;99.90;;;;;;5036216;28;20076;-91
2023/04/22 03:59:14;;;;;;;14.32;11.75;;;10.30;99.90;;;;;;5032369;28;20089;-92
2023/04/22 04:01:39;;;;;;;13.70;11.77;;;10.30;99.90;;;;;;5027768;28;20040;-91
2023/04/22 04:04:05;;;;;;;14.73;11.30;;;10.20;99.90;;;;;;5051273;28;20481;-92
2023/04/22 04:06:31;;;;;;;12.70;10.15;;;10.20;99.90;;;;;;5028182;28;20045;-91
2023/04/22 04:08:57;;;;;;;13.35;10.40;;;10.20;99.90;;;;;;5024188;28;20526;-92
2023/04/22 04:11:23;;;;;;;11.80;10.43;;;10.20;99.90;;;;;;5030930;28;20055;-91
2023/04/22 04:13:48;;;;;;;13.45;11.45;;;10.80;99.90;;;;;;5019073;28;20205;-92
2023/04/22 04:16:15;;;;;;;13.57;11.82;;;10.20;99.90;;;;;;5048628;28;20045;-91
2023/04/22 04:18:41;;;;;;;14.57;11.85;;;10.10;99.90;;;;;;5037575;28;20044;-91
2023/04/22 04:21:07;;;;;;;13.73;11.70;;;10.10;99.90;;;;;;5026776;28;20037;-91
2023/04/22 04:23:32;;;;;;;14.63;11.55;;;10.10;99.90;;;;;;5030218;28;20032;-91
2023/04/22 04:26:02;;;;;;;13.88;11.02;;;10.10;99.90;;;;;;5034306;28;20036;-90
2023/04/22 04:28:31;;;;;;;14.68;11.73;;;10.00;99.90;;;;;;5026688;28;20512;-91
2023/04/22 04:30:58;;;;;;;13.52;11.75;;;10.00;99.90;;;;;;5041506;28;20041;-92
2023/04/22 04:33:24;;;;;;;15.82;12.23;;;10.00;99.90;;;;;;5041147;28;20052;-91
2023/04/22 04:35:51;;;;;;;19.50;13.90;;;10.00;99.90;;;;;;5032687;28;20037;-91
2023/04/22 04:38:17;;;;;;;15.18;12.45;;;9.90;99.90;;;;;;5033570;28;20041;-92
2023/04/22 04:40:44;;;;;;;14.90;12.80;;;9.90;99.90;;;;;;5048019;28;20044;-92
2023/04/22 04:43:11;;;;;;;18.13;13.63;;;9.90;99.90;;;;;;5037743;28;20148;-91
2023/04/22 04:45:38;;;;;;;18.27;14.50;;;10.00;99.90;;;;;;5019676;28;20045;-91
2023/04/22 04:48:08;;;;;;;13.50;10.88;;;9.90;99.90;;;;;;5027909;28;20569;-90
2023/04/22 04:50:34;;;;;;;14.48;12.40;;;9.90;99.90;;;;;;5022638;28;20048;-91
2023/04/22 04:53:00;;;;;;;17.98;14.73;;;9.90;99.90;;;;;;5030719;28;20045;-91
2023/04/22 04:55:39;;;;;;;19.40;15.68;;;10.30;99.90;;;;;;5020897;28;20041;-91
2023/04/22 04:58:10;;;;;;;17.88;15.38;;;10.00;99.90;;;;;;5024600;28;20240;-91
2023/04/22 05:00:36;;;;;;;19.33;16.08;;;9.90;99.90;;;;;;5022105;28;20053;-91
2023/04/22 05:03:02;;;;;;;15.60;12.60;;;10.60;99.90;;;;;;5054589;28;20043;-92
2023/04/22 05:05:28;;;;;;;16.90;14.07;;;9.90;99.90;;;;;;5031430;28;20102;-91
2023/04/22 05:07:54;;;;;;;16.23;13.32;;;10.00;99.90;;;;;;5032139;28;20037;-91
2023/04/22 05:10:24;;;;;;;16.15;13.43;;;10.00;99.90;;;;;;5057916;28;21592;-91
2023/04/22 05:12:50;;;;;;;15.95;12.20;;;10.00;99.90;;;;;;5057175;28;20043;-92
2023/04/22 05:15:16;;;;;;;19.25;14.95;;;10.00;99.90;;;;;;5056249;28;20115;-91
2023/04/22 05:17:42;;;;;;;17.17;14.68;;;10.10;99.90;;;;;;5067299;28;20074;-88
2023/04/22 05:20:08;;;;;;;17.75;14.55;;;10.10;99.90;;;;;;5048979;28;20043;-88
2023/04/22 05:22:37;;;;;;;16.00;11.95;;;10.10;99.90;;;;;;5047134;28;20056;-88
2023/04/22 05:25:04;;;;;;;15.82;12.18;;;10.10;99.90;;;;;;5037189;28;20447;-88
2023/04/22 05:27:30;;;;;;;13.45;10.95;;;10.50;99.90;;;;;;5016069;28;20391;-88
2023/04/22 05:29:56;;;;;;;14.93;11.43;;;10.10;99.90;;;;;;5027162;28;20135;-88
2023/04/22 05:32:22;;;;;;;14.90;11.05;;;10.10;99.90;;;;;;5030439;28;20094;-88
2023/04/22 05:34:48;;;;;;;13.93;11.40;;;10.20;99.90;;;;;;5045614;28;20412;-87
2023/04/22 05:37:19;;;;;;;23.23;15.02;;;10.20;99.90;;;;;;5052640;28;20498;-87
2023/04/22 05:39:45;;;;;;;13.07;11.50;;;10.30;99.90;;;;;;5047968;28;20051;-88
2023/04/22 05:42:11;;;;;;;18.20;14.55;;;10.30;99.90;;;;;;5047656;28;20041;-87
2023/04/22 05:44:40;;;;;;;15.40;12.65;;;10.30;99.90;;;;;;5031787;28;20786;-87
2023/04/22 05:47:06;;;;;;;20.42;16.65;;;10.40;99.90;;;;;;5035498;28;20127;-87
2023/04/22 05:49:32;;;;;;;17.98;13.50;;;10.40;99.90;;;;;;5032167;28;20108;-88
2023/04/22 05:51:57;;;;;;;18.67;14.30;;;10.70;99.90;;;;;;5013873;28;20134;-88
2023/04/22 05:54:28;;;;;;;15.73;13.32;;;10.50;99.90;;;;;;5035061;28;20040;-89
2023/04/22 05:57:03;;;;;;;17.52;15.18;;;10.50;99.90;;;;;;5031571;28;20822;-87
2023/04/22 05:59:29;;;;;;;21.75;16.98;;;10.60;99.90;;;;;;5009021;28;20595;-87
2023/04/22 06:01:57;;;;;;;17.58;14.63;;;10.60;99.90;;;;;;5034044;28;20048;-86
2023/04/22 06:04:26;;;;;;;20.30;13.65;;;10.60;99.90;;;;;;5051755;28;20047;-87
2023/04/22 06:06:52;;;;;;;16.92;13.65;;;10.80;99.90;;;;;;5046889;28;20033;-87
2023/04/22 06:09:20;;;;;;;22.25;15.73;;;10.70;99.90;;;;;;5043614;28;20063;-86
2023/04/22 06:11:48;;;;;;;24.70;17.77;;;10.70;99.90;;;;;;5035861;28;20053;-87
2023/04/22 06:34:58;;;;;;;17.38;14.23;;;11.10;99.90;;;;;;5053797;28;20048;-86
2023/04/22 06:37:26;;;;;;;14.68;12.48;;;11.10;99.90;;;;;;5038698;28;20043;-86
2023/04/22 06:39:52;;;;;;;15.45;13.80;;;11.20;99.90;;;;;;5031276;28;20453;-87
2023/04/22 06:42:18;;;;;;;17.98;14.93;;;11.20;99.90;;;;;;5026491;28;20214;-86
2023/04/22 06:44:47;;;;;;;20.13;14.57;;;12.00;99.90;;;;;;5038831;28;20585;-87
2023/04/22 06:47:13;;;;;;;18.65;16.17;;;11.20;99.90;;;;;;5037727;28;20074;-86
2023/04/22 06:49:43;;;;;;;17.48;15.65;;;11.30;99.90;;;;;;5043650;28;20040;-89
2023/04/22 06:52:09;;;;;;;17.30;14.68;;;11.30;99.90;;;;;;5026853;28;20048;-88
2023/04/22 06:54:35;;;;;;;16.92;14.98;;;11.30;99.90;;;;;;5041032;28;20044;-88
2023/04/22 06:57:02;;;;;;;15.80;13.50;;;11.40;99.90;;;;;;5034678;28;20131;-88
2023/04/22 06:59:28;;;;;;;17.30;14.88;;;11.40;99.90;;;;;;5030851;28;20043;-92
2023/04/22 07:01:53;;;;;;;18.30;14.07;;;11.40;99.90;;;;;;5043339;28;20041;-90
2023/04/22 07:04:19;;;;;;;15.90;13.95;;;11.50;99.90;;;;;;5053043;28;20069;-90
2023/04/22 07:06:45;;;;;;;19.25;15.23;;;11.50;99.90;;;;;;5024554;28;20397;-90
2023/04/22 07:09:11;;;;;;;20.30;16.42;;;11.50;99.90;;;;;;5049867;28;20041;-89
2023/04/22 07:11:37;;;;;;;17.42;14.48;;;11.90;99.90;;;;;;5049572;28;20040;-90
2023/04/22 07:14:03;;;;;;;19.85;14.63;;;11.70;99.90;;;;;;5031006;28;20051;-89
2023/04/22 07:16:28;;;;;;;16.55;14.73;;;11.70;99.90;;;;;;5032605;28;20053;-89
2023/04/22 07:18:54;;;;;;;20.23;14.88;;;11.70;99.90;;;;;;5039341;28;20152;-89
2023/04/22 07:21:20;;;;;;;18.08;14.05;;;11.80;99.90;;;;;;5039619;28;20064;-90
2023/04/22 07:23:46;;;;;;;16.85;14.60;;;11.80;99.90;;;;;;5047033;28;20520;-89
2023/04/22 07:26:23;;;;;;;19.13;16.60;;;11.90;99.90;;;;;;5058535;28;20052;-89
2023/04/22 07:28:54;;;;;;;20.88;17.65;;;11.90;99.90;;;;;;5037800;28;20607;-88
2023/04/22 07:31:23;;;;;;;21.63;19.33;;;12.00;99.90;;;;;;5042814;28;20041;-89
2023/04/22 07:33:49;;;;;;;17.95;15.98;;;12.30;99.90;;;;;;5033179;28;20060;-90
2023/04/22 07:36:15;;;;;;;20.17;16.13;;;12.10;99.90;;;;;;5045767;28;20260;-89
2023/04/22 07:38:45;;;;;;;18.95;15.68;;;12.20;99.90;;;;;;5048222;28;20040;-89
2023/04/22 07:41:16;;;;;;;15.52;13.40;;;12.30;99.90;;;;;;5029772;28;20053;-89
2023/04/22 07:43:41;;;;;;;18.20;14.65;;;12.30;99.90;;;;;;5029789;28;20113;-89
2023/04/22 07:46:07;;;;;;;17.15;13.68;;;12.50;99.90;;;;;;5038443;28;20837;-90
2023/04/22 07:48:33;;;;;;;18.98;14.13;;;12.50;99.90;;;;;;5030859;28;20120;-90
2023/04/22 07:50:59;;;;;;;18.10;14.00;;;12.50;99.90;;;;;;5035483;28;20048;-89
2023/04/22 07:53:25;;;;;;;16.63;13.90;;;12.60;99.90;;;;;;5036225;28;20051;-90
2023/04/22 07:55:50;;;;;;;16.88;14.57;;;12.70;99.90;;;;;;5042967;28;20173;-90
2023/04/22 07:58:16;;;;;;;18.00;15.02;;;12.70;99.90;;;;;;5038504;28;20071;-89
2023/04/22 08:00:42;;;;;;;18.08;14.38;;;12.80;99.90;;;;;;5050244;28;20280;-88
2023/04/22 08:03:09;;;;;;;18.60;14.30;;;12.90;99.90;;;;;;5035490;28;20052;-90
2023/04/22 08:05:35;;;;;;;17.95;13.85;;;13.00;99.90;;;;;;5019167;28;20045;-90
2023/04/22 08:08:01;;;;;;;15.05;12.85;;;13.10;99.90;;;;;;5035447;28;20151;-88
2023/04/22 08:10:27;;;;;;;14.55;13.02;;;13.10;99.90;;;;;;5051039;28;20120;-91
2023/04/22 08:12:52;;;;;;;15.85;13.85;;;13.20;99.90;;;;;;5014747;28;20055;-90
2023/04/22 08:15:18;;;;;;;16.35;14.00;;;13.30;99.90;;;;;;5030639;28;20379;-90
2023/04/22 08:17:44;;;;;;;15.70;12.85;;;13.40;99.90;;;;;;5048596;28;20835;-88
2023/04/22 08:20:11;;;;;;;17.00;13.73;;;13.50;99.90;;;;;;5033144;28;20041;-89
2023/04/22 08:22:37;;;;;;;18.88;13.80;;;13.50;99.90;;;;;;5054411;28;20073;-90
2023/04/22 08:25:05;;;;;;;15.63;13.35;;;13.70;99.90;;;;;;5023699;28;20036;-89
2023/04/22 08:27:31;;;;;;;16.88;13.15;;;13.80;99.90;;;;;;5048240;28;20063;-89
2023/04/22 08:29:57;;;;;;;17.15;13.15;;;13.80;99.90;;;;;;5036379;28;20506;-89
2023/04/22 08:32:25;;;;;;;15.50;13.23;;;14.00;99.90;;;;;;5029453;28;20044;-90
2023/04/22 08:34:51;;;;;;;14.55;11.85;;;14.10;99.90;;;;;;4996864;28;20061;-89
2023/04/22 08:37:17;;;;;;;13.50;11.80;;;14.20;99.90;;;;;;5010176;28;20052;-90
2023/04/22 08:39:42;;;;;;;12.98;11.15;;;14.30;99.90;;;;;;5009055;28;20156;-89
2023/04/22 08:42:09;;;;;;;13.18;11.48;;;14.40;99.90;;;;;;5013858;28;20045;-89
2023/04/22 08:44:37;;;;;;;14.00;11.13;;;14.50;99.90;;;;;;5015817;28;20411;-90
2023/04/22 08:47:03;;;;;;;12.38;10.57;;;14.60;99.90;;;;;;4994112;28;20104;-90
2023/04/22 08:49:29;;;;;;;14.50;10.50;;;14.70;99.90;;;;;;5013119;28;20062;-89
2023/04/22 08:51:56;;;;;;;12.63;9.95;;;14.80;99.90;;;;;;5016962;28;20045;-89
2023/04/22 08:54:25;;;;;;;11.40;9.60;;;14.90;99.90;;;;;;4995291;28;20052;-89
2023/04/22 08:57:00;;;;;;;11.52;9.45;;;15.00;99.90;;;;;;5022375;28;20042;-89
2023/04/22 08:59:26;;;;;;;12.82;9.30;;;15.10;99.90;;;;;;5005329;28;20041;-89
2023/04/22 09:01:54;;;;;;;11.95;8.93;;;15.20;99.90;;;;;;5008534;28;20049;-91
2023/04/22 09:04:20;;;;;;;11.18;9.20;;;15.30;99.90;;;;;;5013328;28;20037;-91
2023/04/22 09:06:45;;;;;;;17.73;8.70;;;15.50;99.90;;;;;;5013922;28;20068;-89
2023/04/22 09:09:13;;;;;;;12.52;9.70;;;15.50;99.90;;;;;;5014221;28;20665;-88
2023/04/22 09:11:39;;;;;;;12.68;9.88;;;15.60;99.90;;;;;;5011739;28;20061;-88
2023/04/22 09:14:05;;;;;;;11.45;8.57;;;15.70;99.90;;;;;;5013987;28;20041;-88
2023/04/22 09:16:32;;;;;;;11.93;8.27;;;15.90;99.90;;;;;;5017841;28;20125;-88
2023/04/22 09:18:58;;;;;;;11.32;8.30;;;16.00;99.90;;;;;;5011742;28;20049;-88
2023/04/22 09:21:27;;;;;;;12.43;8.75;;;16.10;99.90;;;;;;5007652;28;20037;-89
2023/04/22 09:23:55;;;;;;;11.15;8.60;;;16.20;99.90;;;;;;4990231;28;20037;-88
2023/04/22 09:26:23;;;;;;;11.43;7.97;;;16.30;99.90;;;;;;5012455;28;20088;-88
2023/04/22 09:28:57;;;;;;;10.27;7.70;;;16.50;99.90;;;;;;5012872;28;20803;-88
2023/04/22 09:31:24;;;;;;;10.13;6.82;;;16.60;99.90;;;;;;5018053;28;20053;-89
2023/04/22 09:33:52;;;;;;;13.10;7.60;;;16.80;99.90;;;;;;5012291;28;20164;-91
2023/04/22 09:36:26;;;;;;;11.35;7.45;;;17.00;99.90;;;;;;5015049;28;20095;-90
2023/04/22 09:39:00;;;;;;;10.45;7.97;;;17.10;99.90;;;;;;5016776;28;20088;-89
2023/04/22 09:41:40;;;;;;;13.23;7.38;;;17.20;99.90;;;;;;4995681;28;20045;-90
2023/04/22 09:44:16;;;;;;;9.60;7.07;;;17.20;99.90;;;;;;5035905;28;20063;-90
2023/04/22 09:46:43;;;;;;;10.65;6.85;;;17.40;99.90;;;;;;5011411;28;20068;-94
2023/04/22 09:49:10;;;;;;;10.75;7.57;;;17.50;99.90;;;;;;5019946;28;20034;-93
2023/04/22 09:51:41;;;;;;;10.07;6.45;;;17.60;99.90;;;;;;5016827;28;20224;-94
2023/04/22 09:54:12;;;;;;;9.75;6.32;;;17.60;99.90;;;;;;5006763;28;20133;-92
2023/04/22 09:56:51;;;;;;;14.52;8.60;;;17.70;99.90;;;;;;5018219;28;20076;-88
2023/04/22 09:59:28;;;;;;;38.47;24.88;;;17.80;99.90;;;;;;5005829;28;20365;-86
2023/04/22 10:01:57;;;;;;;11.90;7.82;;;17.80;99.90;;;;;;5010948;28;20121;-88
2023/04/22 10:04:26;;;;;;;12.98;6.65;;;18.00;99.90;;;;;;5018699;28;20557;-90
2023/04/22 10:06:53;;;;;;;10.52;6.95;;;18.20;99.90;;;;;;5028603;28;20038;-89
2023/04/22 10:09:21;;;;;;;9.43;5.90;;;18.30;99.90;;;;;;5025084;28;20098;-92
2023/04/22 10:11:51;;;;;;;7.28;5.90;;;18.40;99.90;;;;;;5008694;28;20055;-91
2023/04/22 10:14:16;;;;;;;9.23;6.47;;;18.50;99.90;;;;;;5020300;28;20138;-91
2023/04/22 10:16:45;;;;;;;8.18;6.57;;;18.60;99.90;;;;;;5021456;28;20455;-91
2023/04/22 10:19:16;;;;;;;12.48;7.22;;;18.60;99.90;;;;;;5022839;28;20121;-91
2023/04/22 10:21:44;;;;;;;12.13;7.60;;;18.70;99.90;;;;;;5015067;28;20145;-90
2023/04/22 10:24:17;;;;;;;13.80;8.60;;;18.70;99.90;;;;;;5005470;28;20037;-90
2023/04/22 10:26:55;;;;;;;10.00;6.80;;;18.80;99.90;;;;;;5013563;28;20053;-92
2023/04/22 10:29:21;;;;;;;10.90;8.38;;;19.00;99.90;;;;;;5012198;28;20084;-92
2023/04/22 10:32:02;;;;;;;10.70;8.02;;;19.00;99.90;;;;;;5022533;28;20063;-92
2023/04/22 10:34:31;;;;;;;9.90;6.22;;;19.20;99.90;;;;;;5064380;28;20059;-92
2023/04/22 10:37:00;;;;;;;9.27;5.75;;;19.20;99.90;;;;;;5047550;28;20040;-92
2023/04/22 10:39:28;;;;;;;8.38;6.53;;;19.30;99.90;;;;;;5054523;28;20055;-92
2023/04/22 10:42:10;;;;;;;9.10;7.20;;;19.40;99.90;;;;;;5069836;28;20050;-92
2023/04/22 10:45:10;;;;;;;10.75;7.25;;;19.50;99.90;;;;;;5067523;28;20079;-94
2023/04/22 10:47:37;;;;;;;9.13;6.38;;;19.60;99.90;;;;;;5054805;28;20041;-92
2023/04/22 10:50:24;;;;;;;10.05;7.65;;;19.70;99.90;;;;;;5058657;28;20495;-94
2023/04/22 10:52:55;;;;;;;9.73;7.15;;;19.80;99.90;;;;;;5063655;28;20040;-95
2023/04/22 10:55:21;;;;;;;7.82;5.95;;;20.00;99.90;;;;;;5040782;28;20053;-88
2023/04/22 10:57:49;;;;;;;12.98;7.18;;;20.00;99.90;;;;;;5028663;28;20114;-90
2023/04/22 11:00:30;;;;;;;8.88;7.15;;;20.10;99.90;;;;;;5063348;28;20116;-90
2023/04/22 11:03:06;;;;;;;10.52;8.00;;;20.30;99.90;;;;;;5057860;28;20051;-91
2023/04/22 11:05:34;;;;;;;10.43;7.53;;;20.30;99.90;;;;;;5031223;28;20048;-91
2023/04/22 11:08:07;;;;;;;10.25;6.28;;;20.40;99.90;;;;;;5045783;28;20045;-92
2023/04/22 11:10:39;;;;;;;12.07;6.73;;;20.50;99.90;;;;;;5032702;28;20120;-91
2023/04/22 11:13:06;;;;;;;12.05;7.40;;;20.60;99.90;;;;;;5054856;28;20044;-91
2023/04/22 11:15:35;;;;;;;9.10;6.25;;;20.70;99.90;;;;;;5050168;28;20039;-93
2023/04/22 11:18:23;;;;;;;8.27;6.22;;;20.70;99.90;;;;;;5052723;28;20116;-91
2023/04/22 11:20:52;;;;;;;9.20;6.18;;;20.80;99.90;;;;;;5011955;28;20132;-90
2023/04/22 11:23:30;;;;;;;9.50;5.72;;;20.80;99.90;;;;;;5028963;28;20126;-92
2023/04/22 11:26:03;;;;;;;7.18;5.25;;;20.90;99.90;;;;;;5034077;28;20110;-93
2023/04/22 11:28:29;;;;;;;7.60;5.38;;;20.90;99.90;;;;;;5048701;28;20044;-92
2023/04/22 11:31:09;;;;;;;7.53;4.40;;;21.00;99.90;;;;;;5024368;28;20766;-91
2023/04/22 11:33:37;;;;;;;6.55;4.45;;;21.10;99.90;;;;;;5036922;28;20094;-90
2023/04/22 11:36:03;;;;;;;7.03;4.53;;;21.30;99.90;;;;;;5027484;28;20056;-91
2023/04/22 11:38:29;;;;;;;7.65;4.65;;;21.40;99.90;;;;;;5028048;28;20124;-92
2023/04/22 11:40:57;;;;;;;6.72;5.05;;;21.50;99.90;;;;;;5028358;28;20546;-91
2023/04/22 11:43:23;;;;;;;7.25;4.82;;;21.60;99.90;;;;;;5051782;28;20067;-92
2023/04/22 11:45:49;;;;;;;6.95;4.18;;;21.70;99.90;;;;;;5036520;28;20385;-93
2023/04/22 11:48:15;;;;;;;9.60;5.22;;;21.70;99.90;;;;;;5022887;28;20469;-91
2023/04/22 11:50:46;;;;;;;7.78;5.05;;;21.70;99.90;;;;;;5010908;28;20047;-92
2023/04/22 11:53:13;;;;;;;6.43;4.45;;;21.70;99.90;;;;;;5019403;28;20072;-92
2023/04/22 11:55:40;;;;;;;8.32;4.35;;;21.70;99.90;;;;;;5025651;28;20479;-91
2023/04/22 11:58:19;;;;;;;6.38;4.18;;;21.80;99.90;;;;;;5026069;28;20100;-92
2023/04/22 12:00:49;;;;;;;8.82;4.30;;;22.00;99.90;;;;;;5018053;28;20726;-94
2023/04/22 12:03:26;;;;;;;8.20;4.75;;;22.10;99.90;;;;;;5030201;28;20049;-92
2023/04/22 12:05:59;;;;;;;8.07;5.43;;;22.20;99.90;;;;;;5047266;28;20045;-93
2023/04/22 12:08:31;;;;;;;7.60;4.70;;;22.10;99.90;;;;;;5032427;28;20651;-92
2023/04/22 12:11:04;;;;;;;9.75;5.00;;;22.00;99.90;;;;;;5028074;28;20057;-92
2023/04/22 12:13:36;;;;;;;8.18;5.25;;;21.70;99.90;;;;;;5029244;28;20604;-92
2023/04/22 12:16:04;;;;;;;7.55;5.55;;;21.60;99.90;;;;;;5042321;28;20107;-91
2023/04/22 12:18:37;;;;;;;7.40;5.20;;;21.50;99.90;;;;;;5039789;28;20041;-91
2023/04/22 12:21:13;;;;;;;8.05;5.60;;;21.40;99.90;;;;;;5049118;28;20036;-91
2023/04/22 12:23:44;;;;;;;7.60;5.90;;;21.30;99.90;;;;;;5017502;28;20040;-89
2023/04/22 12:26:11;;;;;;;7.35;5.55;;;21.30;99.90;;;;;;5052374;28;20056;-93
2023/04/22 12:28:40;;;;;;;9.43;6.22;;;21.30;99.90;;;;;;5023201;28;20590;-94
2023/04/22 12:31:06;;;;;;;8.88;5.95;;;21.20;99.90;;;;;;5029839;28;20041;-96
2023/04/22 12:33:39;;;;;;;10.60;6.07;;;21.10;99.90;;;;;;5404822;23;20115;-96
2023/04/22 12:36:11;;;;;;;7.82;5.47;;;21.00;99.90;;;;;;5357275;22;20030;-95
2023/04/22 12:38:49;;;;;;;9.20;5.50;;;20.80;99.90;;;;;;5110714;28;20060;-96
2023/04/22 12:41:22;;;;;;;8.35;5.60;;;21.10;99.90;;;;;;5113842;28;20105;-96
2023/04/22 12:43:51;;;;;;;8.02;5.97;;;21.20;99.90;;;;;;5087699;28;20056;-91
2023/04/22 12:46:17;;;;;;;8.73;6.10;;;21.30;99.90;;;;;;5078624;28;20047;-93
2023/04/22 12:48:43;;;;;;;8.27;6.50;;;21.50;99.90;;;;;;5075225;28;20040;-93
2023/04/22 12:51:08;;;;;;;9.10;5.50;;;21.70;99.90;;;;;;5071527;28;20063;-95
2023/04/22 12:53:34;;;;;;;8.40;6.13;;;21.80;99.90;;;;;;5086046;28;20032;-96
2023/04/22 12:56:03;;;;;;;12.18;6.90;;;22.00;99.90;;;;;;5079459;28;20062;-96